Time;durP1;ratioP1;P1;durP2;ratioP2;P2;SDS_P1;SDS_P2;PMS_P1;PMS_P2;Temp;Humidity;BMP_temperature;BMP_pressure;BME280_temperature;BME280_humidity;BME280_pressure;Samples;Min_cycle;Max_cycle;Signal;HPM_P1;HPM_P2
2021/07/01 00:00:44;;;;;;;3.72;0.90;;;;;;;;;;5051826;28;20116;-69
2021/07/01 00:03:10;;;;;;;3.05;0.70;;;;;;;;;;5053267;28;20029;-69
2021/07/01 00:05:36;;;;;;;1.58;0.77;;;;;;;;;;5053092;28;20025;-69
2021/07/01 00:08:03;;;;;;;2.53;0.50;;;;;;;;;;5053069;28;20025;-69
2021/07/01 00:10:29;;;;;;;1.58;0.60;;;;;;;;;;5053064;28;20083;-69
2021/07/01 00:12:56;;;;;;;1.20;0.52;;;;;;;;;;5053165;28;20074;-69
2021/07/01 00:15:23;;;;;;;3.15;0.60;;;;;;;;;;5047323;28;20022;-69
2021/07/01 00:17:50;;;;;;;3.00;0.68;;;;;;;;;;5033100;28;20038;-70
2021/07/01 00:20:16;;;;;;;5.28;0.75;;;;;;;;;;5032932;28;20029;-69
2021/07/01 00:22:42;;;;;;;4.35;0.73;;;;;;;;;;5033015;28;20500;-69
2021/07/01 00:25:10;;;;;;;1.30;0.50;;;;;;;;;;5031326;28;20030;-70
2021/07/01 00:27:36;;;;;;;1.88;0.70;;;;;;;;;;5033041;28;20023;-70
2021/07/01 00:30:02;;;;;;;2.10;0.55;;;;;;;;;;5032644;28;20087;-69
2021/07/01 00:32:28;;;;;;;6.28;0.90;;;;;;;;;;5043490;28;20024;-68
2021/07/01 00:34:54;;;;;;;3.95;0.65;;;;;;;;;;5032348;28;20067;-70
2021/07/01 00:37:20;;;;;;;2.83;0.88;;;;;;;;;;5042399;28;20025;-69
2021/07/01 00:39:47;;;;;;;4.57;0.65;;;;;;;;;;5052179;28;20017;-69
2021/07/01 00:42:13;;;;;;;1.45;0.50;;;;;;;;;;5050798;28;20060;-69
2021/07/01 00:44:39;;;;;;;1.65;0.60;;;;;;;;;;5052116;28;20020;-70
2021/07/01 00:47:05;;;;;;;4.50;0.73;;;;;;;;;;5052164;28;20481;-70
2021/07/01 00:49:31;;;;;;;6.63;0.73;;;;;;;;;;5041754;28;20364;-69
2021/07/01 00:51:57;;;;;;;1.33;0.60;;;;;;;;;;5032118;28;20109;-69
2021/07/01 00:54:23;;;;;;;4.55;0.77;;;;;;;;;;5031884;28;20049;-69
2021/07/01 00:56:50;;;;;;;3.33;0.50;;;;;;;;;;5047310;28;20049;-69
2021/07/01 00:59:17;;;;;;;2.00;0.50;;;;;;;;;;5051775;28;20060;-69
2021/07/01 01:01:43;;;;;;;3.67;0.57;;;;;;;;;;5051323;28;20024;-69
2021/07/01 01:04:09;;;;;;;4.68;0.50;;;;;;;;;;5051489;28;20045;-69
2021/07/01 01:06:35;;;;;;;5.75;0.65;;;;;;;;;;5051644;28;20031;-69
2021/07/01 01:09:01;;;;;;;2.55;0.45;;;;;;;;;;5078197;28;20354;-69
2021/07/01 01:11:27;;;;;;;1.70;0.40;;;;;;;;;;5091876;28;20043;-69
2021/07/01 01:13:55;;;;;;;2.38;0.60;;;;;;;;;;5091887;28;20023;-69
2021/07/01 01:16:21;;;;;;;0.55;0.30;;;;;;;;;;5059749;28;20062;-69
2021/07/01 01:18:48;;;;;;;2.28;0.50;;;;;;;;;;5071594;28;20536;-69
2021/07/01 01:21:27;;;;;;;3.10;0.40;;;;;;;;;;5071478;28;20024;-69
2021/07/01 01:23:56;;;;;;;2.72;0.60;;;;;;;;;;5071555;28;20381;-69
2021/07/01 01:26:23;;;;;;;0.77;0.40;;;;;;;;;;5071294;28;20087;-69
2021/07/01 01:28:49;;;;;;;8.10;0.80;;;;;;;;;;5071691;28;20024;-69
2021/07/01 01:31:15;;;;;;;1.95;0.40;;;;;;;;;;5081708;28;20450;-69
2021/07/01 01:33:41;;;;;;;5.03;0.60;;;;;;;;;;5091930;28;20024;-69
2021/07/01 01:36:08;;;;;;;2.58;0.40;;;;;;;;;;5091893;28;20389;-68
2021/07/01 01:38:34;;;;;;;3.80;0.70;;;;;;;;;;5091725;28;20028;-69
2021/07/01 01:41:00;;;;;;;1.75;0.40;;;;;;;;;;5091676;28;20020;-68
2021/07/01 01:43:26;;;;;;;1.98;0.50;;;;;;;;;;5073442;28;20024;-69
2021/07/01 01:45:52;;;;;;;2.28;0.55;;;;;;;;;;5073659;28;20052;-69
2021/07/01 01:48:18;;;;;;;1.73;0.50;;;;;;;;;;5073392;28;20028;-69
2021/07/01 01:50:44;;;;;;;1.63;0.50;;;;;;;;;;5091343;28;20038;-69
2021/07/01 01:53:11;;;;;;;3.03;0.60;;;;;;;;;;5073349;28;20020;-68
2021/07/01 01:55:37;;;;;;;1.67;0.55;;;;;;;;;;5091324;28;20040;-68
2021/07/01 01:58:04;;;;;;;1.10;0.40;;;;;;;;;;5091657;28;20024;-68
2021/07/01 02:00:30;;;;;;;9.65;0.80;;;;;;;;;;5085145;28;20033;-68
2021/07/01 02:02:57;;;;;;;1.00;0.55;;;;;;;;;;5070348;28;20021;-69
2021/07/01 02:05:24;;;;;;;0.90;0.30;;;;;;;;;;5071164;28;20521;-69
2021/07/01 02:07:50;;;;;;;2.55;0.40;;;;;;;;;;5071011;28;20021;-69
2021/07/01 02:10:20;;;;;;;1.23;0.40;;;;;;;;;;5070950;28;20032;-68
2021/07/01 02:12:46;;;;;;;3.42;0.35;;;;;;;;;;5054880;28;20411;-69
2021/07/01 02:15:13;;;;;;;2.60;0.70;;;;;;;;;;5074564;28;20056;-70
2021/07/01 02:17:40;;;;;;;37.38;3.30;;;;;;;;;;5074857;28;20096;-69
2021/07/01 02:20:13;;;;;;;5.57;0.60;;;;;;;;;;5074889;28;20456;-68
2021/07/01 02:22:40;;;;;;;1.40;0.50;;;;;;;;;;5074974;28;20024;-69
2021/07/01 02:25:07;;;;;;;2.78;0.77;;;;;;;;;;5075019;28;20499;-69
2021/07/01 02:27:33;;;;;;;2.22;0.60;;;;;;;;;;5074708;28;20096;-69
2021/07/01 02:29:59;;;;;;;1.52;0.40;;;;;;;;;;5074341;28;20062;-69
2021/07/01 02:32:25;;;;;;;0.85;0.43;;;;;;;;;;5074287;28;20033;-69
2021/07/01 02:34:51;;;;;;;1.02;0.47;;;;;;;;;;5074362;28;20029;-69
2021/07/01 02:37:19;;;;;;;1.55;0.40;;;;;;;;;;5056789;28;20029;-69
2021/07/01 02:39:46;;;;;;;9.25;0.63;;;;;;;;;;5074457;28;20454;-68
2021/07/01 02:42:12;;;;;;;2.72;0.35;;;;;;;;;;5074291;28;20017;-68
2021/07/01 02:44:38;;;;;;;1.30;0.50;;;;;;;;;;5074510;28;20477;-69
2021/07/01 02:47:04;;;;;;;0.90;0.50;;;;;;;;;;5056432;28;20020;-69
2021/07/01 02:49:30;;;;;;;1.70;0.55;;;;;;;;;;5074229;28;20020;-69
2021/07/01 02:51:56;;;;;;;0.98;0.40;;;;;;;;;;5074234;28;20111;-69
2021/07/01 02:54:22;;;;;;;0.88;0.38;;;;;;;;;;5073986;28;20013;-69
2021/07/01 02:56:49;;;;;;;1.00;0.50;;;;;;;;;;5055932;28;20044;-68
2021/07/01 02:59:17;;;;;;;1.50;0.50;;;;;;;;;;5074072;28;20021;-69
2021/07/01 03:01:43;;;;;;;0.45;0.22;;;;;;;;;;5073912;28;20119;-69
2021/07/01 03:04:10;;;;;;;1.95;0.40;;;;;;;;;;5073746;28;20096;-69
2021/07/01 03:06:36;;;;;;;1.55;0.40;;;;;;;;;;5074198;28;20519;-68
2021/07/01 03:09:03;;;;;;;1.95;0.43;;;;;;;;;;5074009;28;20032;-69
2021/07/01 03:11:29;;;;;;;2.28;0.52;;;;;;;;;;5073761;28;20032;-69
2021/07/01 03:13:55;;;;;;;4.10;0.50;;;;;;;;;;5073695;28;20024;-69
2021/07/01 03:16:21;;;;;;;2.33;0.60;;;;;;;;;;5059947;28;20037;-69
2021/07/01 03:18:47;;;;;;;0.75;0.50;;;;;;;;;;5053982;28;20359;-69
2021/07/01 03:21:13;;;;;;;3.53;0.55;;;;;;;;;;5053557;28;20032;-69
2021/07/01 03:23:40;;;;;;;3.03;0.40;;;;;;;;;;5052182;28;20021;-69
2021/07/01 03:26:06;;;;;;;8.02;0.70;;;;;;;;;;5053479;28;20053;-69
2021/07/01 03:28:32;;;;;;;1.35;0.40;;;;;;;;;;5053904;28;20381;-69
2021/07/01 03:30:58;;;;;;;4.43;0.40;;;;;;;;;;5053342;28;20065;-68
2021/07/01 03:33:24;;;;;;;2.75;0.40;;;;;;;;;;5053485;28;20032;-68
2021/07/01 03:35:50;;;;;;;1.30;0.40;;;;;;;;;;5053381;28;20078;-68
2021/07/01 03:38:16;;;;;;;9.25;0.90;;;;;;;;;;5053344;28;20116;-69
2021/07/01 03:40:42;;;;;;;2.15;0.60;;;;;;;;;;5053298;28;20025;-69
2021/07/01 03:43:08;;;;;;;4.55;0.80;;;;;;;;;;5052120;28;20028;-69
2021/07/01 03:45:34;;;;;;;4.40;0.63;;;;;;;;;;5053553;28;20051;-69
2021/07/01 03:48:01;;;;;;;1.17;0.38;;;;;;;;;;5053182;28;20028;-69
2021/07/01 03:50:27;;;;;;;2.30;0.40;;;;;;;;;;5053147;28;20079;-68
2021/07/01 03:52:53;;;;;;;1.15;0.43;;;;;;;;;;5055704;28;20027;-68
2021/07/01 03:55:19;;;;;;;1.08;0.57;;;;;;;;;;5072909;28;20038;-68
2021/07/01 03:57:46;;;;;;;2.83;0.47;;;;;;;;;;5073010;28;20033;-68
2021/07/01 04:00:12;;;;;;;1.50;0.40;;;;;;;;;;5072954;28;20020;-68
2021/07/01 04:02:38;;;;;;;3.03;0.50;;;;;;;;;;5068343;28;20021;-68
2021/07/01 04:05:05;;;;;;;0.43;0.32;;;;;;;;;;5072605;28;20120;-68
2021/07/01 04:07:31;;;;;;;2.22;0.50;;;;;;;;;;5072701;28;20016;-68
2021/07/01 04:10:01;;;;;;;4.05;0.50;;;;;;;;;;5072624;28;20051;-68
2021/07/01 04:12:27;;;;;;;0.70;0.40;;;;;;;;;;5072870;28;20370;-69
2021/07/01 04:14:53;;;;;;;9.00;1.10;;;;;;;;;;5072324;28;20095;-69
2021/07/01 04:17:19;;;;;;;2.33;1.00;;;;;;;;;;5072626;28;20044;-68
2021/07/01 04:19:45;;;;;;;1.20;0.40;;;;;;;;;;5072682;28;20029;-69
2021/07/01 04:22:11;;;;;;;1.83;0.45;;;;;;;;;;5054545;28;20062;-69
2021/07/01 04:24:37;;;;;;;4.40;0.50;;;;;;;;;;5072501;28;20477;-68
2021/07/01 04:27:03;;;;;;;5.47;0.60;;;;;;;;;;5054325;28;20029;-69
2021/07/01 04:29:29;;;;;;;6.15;0.70;;;;;;;;;;5054184;28;20504;-70
2021/07/01 04:31:55;;;;;;;3.88;0.63;;;;;;;;;;5072368;28;20046;-68
2021/07/01 04:34:22;;;;;;;1.10;0.40;;;;;;;;;;5072319;28;20025;-69
2021/07/01 04:36:48;;;;;;;2.90;0.68;;;;;;;;;;5072017;28;20029;-69
2021/07/01 04:39:14;;;;;;;2.10;0.70;;;;;;;;;;5072282;28;20020;-69
2021/07/01 04:41:40;;;;;;;3.08;0.45;;;;;;;;;;5066225;28;20073;-69
2021/07/01 04:44:06;;;;;;;3.58;0.40;;;;;;;;;;5072163;28;20025;-69
2021/07/01 04:46:32;;;;;;;1.38;0.45;;;;;;;;;;5072010;28;20064;-68
2021/07/01 04:48:59;;;;;;;1.55;0.50;;;;;;;;;;5054186;28;20020;-69
2021/07/01 04:51:26;;;;;;;4.07;0.93;;;;;;;;;;5071803;28;20497;-69
2021/07/01 04:53:52;;;;;;;3.60;0.57;;;;;;;;;;5071836;28;20031;-69
2021/07/01 04:56:18;;;;;;;1.83;0.50;;;;;;;;;;5071430;28;20091;-69
2021/07/01 04:58:44;;;;;;;2.38;0.68;;;;;;;;;;5053842;28;20028;-69
2021/07/01 05:01:10;;;;;;;1.67;0.50;;;;;;;;;;5072086;28;20504;-69
2021/07/01 05:03:36;;;;;;;1.48;0.73;;;;;;;;;;5053966;28;20029;-69
2021/07/01 05:06:02;;;;;;;3.45;0.70;;;;;;;;;;5071563;28;20027;-69
2021/07/01 05:08:28;;;;;;;3.65;0.45;;;;;;;;;;5071759;28;20155;-69
2021/07/01 05:10:55;;;;;;;2.17;0.57;;;;;;;;;;5071833;28;20037;-69
2021/07/01 05:13:21;;;;;;;3.33;0.68;;;;;;;;;;5068285;28;20029;-69
2021/07/01 05:15:47;;;;;;;4.30;0.60;;;;;;;;;;5053528;28;20068;-69
2021/07/01 05:18:13;;;;;;;3.33;0.70;;;;;;;;;;5053536;28;20008;-69
2021/07/01 05:20:39;;;;;;;3.75;0.68;;;;;;;;;;5071654;28;20030;-69
2021/07/01 05:23:05;;;;;;;4.78;0.70;;;;;;;;;;5071592;28;20032;-69
2021/07/01 05:25:31;;;;;;;1.50;0.57;;;;;;;;;;5071643;28;20058;-69
2021/07/01 05:27:57;;;;;;;3.47;0.70;;;;;;;;;;5071441;28;20497;-69
2021/07/01 05:30:24;;;;;;;6.45;0.80;;;;;;;;;;5071487;28;20032;-69
2021/07/01 05:32:50;;;;;;;7.95;0.90;;;;;;;;;;5071446;28;20028;-69
2021/07/01 05:35:16;;;;;;;14.25;1.00;;;;;;;;;;5071396;28;20477;-69
2021/07/01 05:37:42;;;;;;;1.50;0.43;;;;;;;;;;5071902;28;20036;-69
2021/07/01 05:40:08;;;;;;;1.35;0.52;;;;;;;;;;5071204;28;20341;-69
2021/07/01 05:42:34;;;;;;;3.95;0.63;;;;;;;;;;5071260;28;20076;-70
2021/07/01 05:45:00;;;;;;;8.02;0.75;;;;;;;;;;5071281;28;20073;-70
2021/07/01 05:47:26;;;;;;;3.97;0.63;;;;;;;;;;5054180;28;20127;-70
2021/07/01 05:49:52;;;;;;;1.58;0.45;;;;;;;;;;5075211;28;20615;-69
2021/07/01 05:52:23;;;;;;;1.50;0.50;;;;;;;;;;5075398;28;20024;-69
2021/07/01 05:54:55;;;;;;;9.85;0.95;;;;;;;;;;5075351;28;20578;-69
2021/07/01 05:57:21;;;;;;;6.30;0.70;;;;;;;;;;5075228;28;20040;-69
2021/07/01 05:59:47;;;;;;;4.50;0.73;;;;;;;;;;5075435;28;20035;-68
2021/07/01 06:02:13;;;;;;;8.80;0.75;;;;;;;;;;5074839;28;20028;-69
2021/07/01 06:04:39;;;;;;;2.63;0.57;;;;;;;;;;5056964;28;20024;-69
2021/07/01 06:07:06;;;;;;;4.82;0.73;;;;;;;;;;5075205;28;20052;-69
2021/07/01 06:09:32;;;;;;;3.75;0.50;;;;;;;;;;5073235;28;20025;-69
2021/07/01 06:11:59;;;;;;;4.30;0.90;;;;;;;;;;5073858;28;20029;-69
2021/07/01 06:14:26;;;;;;;8.27;0.60;;;;;;;;;;5061323;28;20019;-69
2021/07/01 06:16:54;;;;;;;3.50;0.60;;;;;;;;;;5074597;28;20384;-69
2021/07/01 06:19:20;;;;;;;3.50;0.70;;;;;;;;;;5074855;28;20021;-69
2021/07/01 06:21:47;;;;;;;2.97;0.60;;;;;;;;;;5074671;28;20094;-69
2021/07/01 06:24:15;;;;;;;5.03;0.88;;;;;;;;;;5074683;28;20046;-68
2021/07/01 06:26:42;;;;;;;13.57;0.90;;;;;;;;;;5074678;28;20032;-69
2021/07/01 06:29:08;;;;;;;6.50;0.63;;;;;;;;;;5074551;28;20021;-69
2021/07/01 06:31:35;;;;;;;3.47;0.50;;;;;;;;;;5056119;28;20401;-69
2021/07/01 06:34:02;;;;;;;9.80;0.85;;;;;;;;;;5074480;28;20164;-68
2021/07/01 06:36:29;;;;;;;4.80;0.70;;;;;;;;;;5074765;28;20020;-69
2021/07/01 06:38:57;;;;;;;4.40;0.80;;;;;;;;;;5056629;28;20028;-68
2021/07/01 06:41:26;;;;;;;6.97;0.80;;;;;;;;;;5074444;28;20107;-69
2021/07/01 06:43:54;;;;;;;4.97;0.85;;;;;;;;;;5074477;28;20021;-69
2021/07/01 06:46:20;;;;;;;3.45;0.60;;;;;;;;;;5074196;28;20033;-69
2021/07/01 06:48:47;;;;;;;2.13;0.70;;;;;;;;;;5074283;28;20481;-69
2021/07/01 06:51:14;;;;;;;4.65;0.80;;;;;;;;;;5074334;28;20070;-69
2021/07/01 06:53:41;;;;;;;5.07;1.35;;;;;;;;;;5074211;28;20020;-69
2021/07/01 06:56:07;;;;;;;6.88;0.70;;;;;;;;;;5073978;28;20134;-69
2021/07/01 06:58:33;;;;;;;3.95;0.90;;;;;;;;;;5073707;28;20437;-69
2021/07/01 07:00:59;;;;;;;7.32;1.05;;;;;;;;;;5074185;28;20027;-69
2021/07/01 07:03:26;;;;;;;6.43;0.82;;;;;;;;;;5074192;28;20505;-69
2021/07/01 07:05:53;;;;;;;8.50;1.02;;;;;;;;;;5056085;28;20499;-69
2021/07/01 07:08:19;;;;;;;11.25;0.80;;;;;;;;;;5055780;28;20029;-69
2021/07/01 07:10:46;;;;;;;6.25;0.70;;;;;;;;;;5073924;28;20047;-70
2021/07/01 07:13:13;;;;;;;12.20;1.20;;;;;;;;;;5074066;28;20017;-70
2021/07/01 07:15:39;;;;;;;4.32;0.70;;;;;;;;;;5076759;28;20038;-70
2021/07/01 07:18:15;;;;;;;2.92;0.80;;;;;;;;;;5073825;28;20025;-69
2021/07/01 07:20:41;;;;;;;3.00;0.93;;;;;;;;;;5073827;28;20029;-70
2021/07/01 07:23:08;;;;;;;4.10;0.70;;;;;;;;;;5075559;28;20062;-76
2021/07/01 07:25:39;;;;;;;7.13;0.70;;;;;;;;;;5088652;28;20021;-70
2021/07/01 07:28:06;;;;;;;7.40;1.08;;;;;;;;;;5072608;28;20043;-70
2021/07/01 07:30:33;;;;;;;7.18;0.80;;;;;;;;;;5072160;28;20467;-70
2021/07/01 07:33:02;;;;;;;3.30;0.80;;;;;;;;;;5072282;28;20020;-70
2021/07/01 07:35:29;;;;;;;2.97;0.70;;;;;;;;;;5054643;28;20107;-70
2021/07/01 07:37:55;;;;;;;2.80;0.57;;;;;;;;;;5072966;28;20548;-70
2021/07/01 07:40:21;;;;;;;3.88;0.65;;;;;;;;;;5073131;28;20678;-70
2021/07/01 07:42:47;;;;;;;4.65;0.88;;;;;;;;;;5073007;28;20480;-70
2021/07/01 07:45:14;;;;;;;6.55;0.80;;;;;;;;;;5073263;28;20043;-70
2021/07/01 07:47:40;;;;;;;6.85;0.60;;;;;;;;;;5073594;28;20028;-70
2021/07/01 07:50:06;;;;;;;3.25;0.60;;;;;;;;;;5055147;28;20481;-69
2021/07/01 07:52:33;;;;;;;2.78;0.90;;;;;;;;;;5053849;28;20032;-70
2021/07/01 07:55:02;;;;;;;3.15;0.55;;;;;;;;;;5050665;28;20025;-71
2021/07/01 07:57:29;;;;;;;2.38;0.60;;;;;;;;;;5053204;28;20074;-70
2021/07/01 07:59:57;;;;;;;6.22;0.73;;;;;;;;;;5053192;28;20108;-69
2021/07/01 08:02:42;;;;;;;2.47;0.70;;;;;;;;;;5051696;28;20374;-70
2021/07/01 08:05:08;;;;;;;2.03;0.50;;;;;;;;;;5051170;28;20106;-70
2021/07/01 08:07:37;;;;;;;4.85;0.75;;;;;;;;;;5052662;28;20051;-70
2021/07/01 08:10:08;;;;;;;3.15;0.77;;;;;;;;;;5050337;28;20044;-70
2021/07/01 08:12:35;;;;;;;3.35;0.57;;;;;;;;;;5052931;28;20051;-69
2021/07/01 08:15:02;;;;;;;2.20;0.50;;;;;;;;;;5053540;28;20022;-70
2021/07/01 08:17:28;;;;;;;3.83;0.60;;;;;;;;;;5072549;28;20070;-70
2021/07/01 08:19:55;;;;;;;4.28;0.60;;;;;;;;;;5072373;28;20020;-70
2021/07/01 08:22:22;;;;;;;3.90;0.50;;;;;;;;;;5070306;28;20024;-70
2021/07/01 08:24:50;;;;;;;7.75;0.68;;;;;;;;;;5068069;28;20048;-70
2021/07/01 08:27:18;;;;;;;2.83;0.73;;;;;;;;;;5072766;28;20224;-71
2021/07/01 08:29:45;;;;;;;3.10;0.70;;;;;;;;;;5079801;28;20081;-69
2021/07/01 08:32:12;;;;;;;3.38;1.25;;;;;;;;;;5056475;28;20119;-70
2021/07/01 08:34:41;;;;;;;2.22;1.10;;;;;;;;;;5072414;28;20103;-71
2021/07/01 08:37:08;;;;;;;4.78;1.52;;;;;;;;;;5072461;28;20146;-71
2021/07/01 08:39:35;;;;;;;4.32;1.25;;;;;;;;;;5072443;28;20457;-71
2021/07/01 08:42:02;;;;;;;3.40;1.00;;;;;;;;;;5053921;28;20028;-71
2021/07/01 08:44:37;;;;;;;4.18;0.70;;;;;;;;;;5072345;28;20021;-71
2021/07/01 08:47:17;;;;;;;7.88;0.90;;;;;;;;;;5072428;28;20028;-71
2021/07/01 08:49:54;;;;;;;4.20;0.80;;;;;;;;;;5072335;28;20595;-70
2021/07/01 08:52:27;;;;;;;5.18;0.77;;;;;;;;;;5054312;28;20405;-71
2021/07/01 08:55:01;;;;;;;2.50;0.50;;;;;;;;;;5068393;28;20103;-70
2021/07/01 08:57:28;;;;;;;2.05;0.55;;;;;;;;;;5072338;28;20037;-70
2021/07/01 09:00:20;;;;;;;1.33;0.57;;;;;;;;;;5072260;28;20017;-70
2021/07/01 09:03:05;;;;;;;2.03;0.70;;;;;;;;;;5068486;28;20032;-71
2021/07/01 09:05:35;;;;;;;4.88;0.50;;;;;;;;;;5056519;28;20020;-72
2021/07/01 09:08:06;;;;;;;6.15;0.70;;;;;;;;;;5071763;28;20575;-72
2021/07/01 09:10:33;;;;;;;1.65;0.50;;;;;;;;;;5073962;28;20519;-71
2021/07/01 09:12:59;;;;;;;1.52;0.60;;;;;;;;;;5092377;28;20024;-70
2021/07/01 09:15:27;;;;;;;2.55;0.50;;;;;;;;;;5085964;28;20020;-70
2021/07/01 09:17:53;;;;;;;1.25;0.52;;;;;;;;;;5054171;28;20017;-70
2021/07/01 09:20:21;;;;;;;1.33;0.50;;;;;;;;;;5054236;28;20046;-70
2021/07/01 09:22:48;;;;;;;1.55;0.40;;;;;;;;;;5071722;28;20469;-70
2021/07/01 09:25:16;;;;;;;5.82;0.60;;;;;;;;;;5071847;28;20028;-70
2021/07/01 09:27:44;;;;;;;3.78;0.73;;;;;;;;;;5057928;28;20515;-70
2021/07/01 09:30:11;;;;;;;4.43;0.60;;;;;;;;;;5078870;28;20085;-70
2021/07/01 09:32:37;;;;;;;3.38;0.60;;;;;;;;;;5085232;28;20024;-69
2021/07/01 09:35:04;;;;;;;7.15;0.82;;;;;;;;;;5073758;28;20027;-70
2021/07/01 09:37:50;;;;;;;3.65;0.57;;;;;;;;;;5073850;28;20395;-70
2021/07/01 09:40:18;;;;;;;4.82;0.57;;;;;;;;;;5091736;28;20157;-70
2021/07/01 09:42:51;;;;;;;5.72;0.50;;;;;;;;;;5077077;28;20027;-70
2021/07/01 09:45:19;;;;;;;3.17;0.40;;;;;;;;;;5071157;28;20099;-70
2021/07/01 09:47:46;;;;;;;2.70;0.60;;;;;;;;;;5053676;28;20029;-69
2021/07/01 09:50:13;;;;;;;5.75;0.60;;;;;;;;;;5071426;28;20533;-70
2021/07/01 09:52:41;;;;;;;4.70;0.50;;;;;;;;;;5053348;28;20028;-70
2021/07/01 09:55:08;;;;;;;3.88;0.43;;;;;;;;;;5053172;28;20426;-70
2021/07/01 09:57:54;;;;;;;1.38;0.50;;;;;;;;;;5053311;28;20102;-71
2021/07/01 10:00:20;;;;;;;3.70;0.50;;;;;;;;;;5071133;28;20092;-70
2021/07/01 10:03:01;;;;;;;4.03;0.45;;;;;;;;;;5071321;28;20036;-70
2021/07/01 10:05:28;;;;;;;1.73;0.47;;;;;;;;;;5071372;28;20021;-70
2021/07/01 10:07:55;;;;;;;2.58;0.40;;;;;;;;;;5076012;28;20031;-68
2021/07/01 10:10:22;;;;;;;2.15;0.52;;;;;;;;;;5071031;28;20036;-68
2021/07/01 10:12:58;;;;;;;3.13;0.47;;;;;;;;;;5071032;28;20082;-70
2021/07/01 10:15:32;;;;;;;0.95;0.22;;;;;;;;;;5065238;28;20075;-70
2021/07/01 10:18:17;;;;;;;3.40;0.40;;;;;;;;;;5050991;28;20071;-69
2021/07/01 10:20:44;;;;;;;2.72;0.40;;;;;;;;;;5049950;28;20029;-69
2021/07/01 10:23:38;;;;;;;3.05;0.30;;;;;;;;;;5051199;28;20048;-70
2021/07/01 10:26:11;;;;;;;3.75;0.35;;;;;;;;;;5031965;28;20055;-69
2021/07/01 10:28:37;;;;;;;0.50;0.30;;;;;;;;;;5051174;28;20108;-70
2021/07/01 10:31:10;;;;;;;2.67;0.40;;;;;;;;;;5054588;28;20108;-69
2021/07/01 10:33:37;;;;;;;4.38;0.50;;;;;;;;;;5051876;28;20528;-69
2021/07/01 10:36:04;;;;;;;1.00;0.40;;;;;;;;;;5053463;28;20029;-70
2021/07/01 10:38:44;;;;;;;1.85;0.20;;;;;;;;;;5054907;28;20056;-70
2021/07/01 10:41:11;;;;;;;2.92;0.55;;;;;;;;;;5054752;28;20478;-70
2021/07/01 10:43:44;;;;;;;1.05;0.50;;;;;;;;;;5054427;28;20025;-70
2021/07/01 10:46:11;;;;;;;1.55;0.40;;;;;;;;;;5054638;28;20024;-70
2021/07/01 10:48:37;;;;;;;2.22;0.30;;;;;;;;;;5061943;28;20481;-70
2021/07/01 10:51:13;;;;;;;7.78;0.40;;;;;;;;;;5074458;28;20043;-70
2021/07/01 10:53:40;;;;;;;3.28;0.40;;;;;;;;;;5072497;28;20024;-70
2021/07/01 10:56:25;;;;;;;2.70;0.40;;;;;;;;;;5072846;28;20044;-69
2021/07/01 10:58:58;;;;;;;0.28;0.20;;;;;;;;;;5073785;28;20119;-69
2021/07/01 11:01:25;;;;;;;3.40;0.50;;;;;;;;;;5073682;28;20021;-70
2021/07/01 11:04:18;;;;;;;4.93;0.88;;;;;;;;;;5073179;28;20075;-70
2021/07/01 11:06:45;;;;;;;3.22;1.00;;;;;;;;;;5069480;28;20082;-71
2021/07/01 11:09:13;;;;;;;7.65;1.30;;;;;;;;;;5073265;28;20060;-70
2021/07/01 11:11:41;;;;;;;3.63;0.90;;;;;;;;;;5073943;28;20180;-71
2021/07/01 11:14:11;;;;;;;3.63;0.80;;;;;;;;;;5055927;28;20471;-71
2021/07/01 11:16:44;;;;;;;2.13;0.50;;;;;;;;;;5056050;28;20067;-71
2021/07/01 11:19:21;;;;;;;2.58;0.93;;;;;;;;;;5074224;28;20025;-70
2021/07/01 11:21:51;;;;;;;4.72;0.52;;;;;;;;;;5074148;28;20020;-70
2021/07/01 11:24:20;;;;;;;1.20;0.60;;;;;;;;;;5074103;28;20031;-71
2021/07/01 11:26:56;;;;;;;0.52;0.38;;;;;;;;;;5073857;28;20035;-70
2021/07/01 11:29:42;;;;;;;1.85;0.40;;;;;;;;;;5055953;28;20461;-70
2021/07/01 11:32:21;;;;;;;1.60;0.40;;;;;;;;;;5073919;28;20111;-71
2021/07/01 11:34:51;;;;;;;3.08;0.47;;;;;;;;;;5073786;28;20024;-71
2021/07/01 11:37:31;;;;;;;0.50;0.30;;;;;;;;;;5073732;28;20402;-71
2021/07/01 11:39:58;;;;;;;0.60;0.30;;;;;;;;;;5073671;28;20447;-71
2021/07/01 11:42:24;;;;;;;0.88;0.30;;;;;;;;;;5073581;28;20028;-70
2021/07/01 11:44:51;;;;;;;1.30;0.40;;;;;;;;;;5073337;28;20025;-70
2021/07/01 11:47:17;;;;;;;1.45;0.40;;;;;;;;;;5055557;28;20025;-69
2021/07/01 11:49:43;;;;;;;2.78;0.77;;;;;;;;;;5073353;28;20028;-70
2021/07/01 11:52:09;;;;;;;7.18;0.38;;;;;;;;;;5072765;28;20107;-70
2021/07/01 11:54:38;;;;;;;4.85;0.47;;;;;;;;;;5072502;28;20036;-69
2021/07/01 11:57:05;;;;;;;2.40;0.55;;;;;;;;;;5072586;28;20095;-69
2021/07/01 11:59:33;;;;;;;8.10;1.40;;;;;;;;;;5054851;28;20027;-70
2021/07/01 12:02:03;;;;;;;7.25;0.82;;;;;;;;;;5073242;28;20166;-71
2021/07/01 12:04:30;;;;;;;7.68;0.90;;;;;;;;;;5055119;28;20020;-71
2021/07/01 12:07:15;;;;;;;1.52;0.65;;;;;;;;;;5055002;28;20078;-71
2021/07/01 12:09:42;;;;;;;2.72;0.40;;;;;;;;;;5072814;28;20036;-71
2021/07/01 12:12:11;;;;;;;4.82;0.40;;;;;;;;;;5072882;28;20016;-71
2021/07/01 12:14:42;;;;;;;0.98;0.40;;;;;;;;;;5054872;28;20473;-70
2021/07/01 12:17:09;;;;;;;5.15;0.52;;;;;;;;;;5072844;28;20088;-71
2021/07/01 12:19:59;;;;;;;0.65;0.45;;;;;;;;;;5072980;28;20024;-71
2021/07/01 12:22:43;;;;;;;2.10;0.40;;;;;;;;;;5072605;28;20024;-70
2021/07/01 12:25:14;;;;;;;1.35;0.45;;;;;;;;;;5072701;28;20016;-71
2021/07/01 12:27:40;;;;;;;1.98;0.40;;;;;;;;;;5072253;28;20024;-71
2021/07/01 12:30:06;;;;;;;5.00;0.70;;;;;;;;;;5072344;28;20029;-71
2021/07/01 12:32:33;;;;;;;1.38;0.50;;;;;;;;;;5072019;28;20035;-71
2021/07/01 12:34:59;;;;;;;0.90;0.40;;;;;;;;;;5072518;28;20032;-71
2021/07/01 12:37:25;;;;;;;3.55;0.50;;;;;;;;;;5072760;28;20047;-70
2021/07/01 12:39:51;;;;;;;1.75;0.40;;;;;;;;;;5072561;28;20029;-71
2021/07/01 12:42:17;;;;;;;0.68;0.35;;;;;;;;;;5072217;28;20035;-71
2021/07/01 12:44:45;;;;;;;1.63;0.40;;;;;;;;;;5072570;28;20385;-71
2021/07/01 12:47:11;;;;;;;2.53;0.30;;;;;;;;;;5054309;28;20035;-70
2021/07/01 12:49:40;;;;;;;2.55;0.60;;;;;;;;;;5072271;28;20021;-70
2021/07/01 12:52:13;;;;;;;1.05;0.38;;;;;;;;;;5054399;28;20504;-70
2021/07/01 12:54:40;;;;;;;1.55;0.40;;;;;;;;;;5069511;28;20044;-71
2021/07/01 12:57:08;;;;;;;3.17;0.60;;;;;;;;;;5066995;28;20045;-70
2021/07/01 12:59:38;;;;;;;1.73;0.55;;;;;;;;;;5054121;28;20384;-70
2021/07/01 13:02:09;;;;;;;2.17;0.40;;;;;;;;;;5072301;28;20028;-70
2021/07/01 13:04:36;;;;;;;4.40;0.50;;;;;;;;;;5054192;28;20048;-72
2021/07/01 13:07:03;;;;;;;0.73;0.30;;;;;;;;;;5072051;28;20066;-70
2021/07/01 13:09:34;;;;;;;4.05;0.60;;;;;;;;;;5071953;28;20016;-71
2021/07/01 13:12:02;;;;;;;6.88;0.60;;;;;;;;;;5072264;28;20032;-70
2021/07/01 13:14:30;;;;;;;2.95;0.40;;;;;;;;;;5071915;28;20125;-70
2021/07/01 13:17:12;;;;;;;1.65;0.35;;;;;;;;;;5071846;28;20020;-70
2021/07/01 13:19:38;;;;;;;;;;;;;;;;;;5072301;28;20072;-70
2021/07/01 13:22:12;;;;;;;4.28;0.45;;;;;;;;;;5071781;28;20375;-70
2021/07/01 13:24:49;;;;;;;4.47;0.50;;;;;;;;;;5071591;28;20025;-70
2021/07/01 13:27:28;;;;;;;1.27;0.40;;;;;;;;;;5071611;28;20025;-70
2021/07/01 13:29:54;;;;;;;3.35;0.52;;;;;;;;;;5071560;28;20029;-70
2021/07/01 13:32:20;;;;;;;1.92;0.57;;;;;;;;;;5071252;28;20024;-70
2021/07/01 13:34:46;;;;;;;0.88;0.47;;;;;;;;;;5071498;28;20008;-70
2021/07/01 13:37:20;;;;;;;2.72;0.55;;;;;;;;;;5071711;28;20024;-71
2021/07/01 13:39:46;;;;;;;1.75;0.60;;;;;;;;;;5071503;28;20025;-69
2021/07/01 13:42:31;;;;;;;4.65;0.50;;;;;;;;;;5070686;28;20020;-70
2021/07/01 13:45:01;;;;;;;2.67;0.30;;;;;;;;;;5071625;28;20021;-70
2021/07/01 13:47:27;;;;;;;3.60;0.65;;;;;;;;;;5053510;28;20021;-69
2021/07/01 13:49:54;;;;;;;1.60;0.38;;;;;;;;;;5071500;28;20385;-69
2021/07/01 13:52:20;;;;;;;2.03;0.32;;;;;;;;;;5071406;28;20033;-70
2021/07/01 13:54:47;;;;;;;2.83;0.57;;;;;;;;;;5071399;28;20048;-69
2021/07/01 13:57:13;;;;;;;1.42;0.30;;;;;;;;;;5071385;28;20520;-69
2021/07/01 13:59:39;;;;;;;1.63;0.40;;;;;;;;;;5071278;28;20074;-70
2021/07/01 14:02:21;;;;;;;4.18;1.17;;;;;;;;;;5053004;28;20025;-70
2021/07/01 14:04:47;;;;;;;5.28;0.98;;;;;;;;;;5070028;28;20023;-70
2021/07/01 14:07:13;;;;;;;7.80;1.90;;;;;;;;;;5070937;28;20393;-70
2021/07/01 14:09:39;;;;;;;3.58;1.60;;;;;;;;;;5073737;28;20085;-70
2021/07/01 14:12:06;;;;;;;5.07;1.15;;;;;;;;;;5056536;28;20119;-70
2021/07/01 14:14:32;;;;;;;7.15;1.77;;;;;;;;;;5071294;28;20021;-70
2021/07/01 14:16:58;;;;;;;9.20;1.48;;;;;;;;;;5075083;28;20055;-70
2021/07/01 14:19:24;;;;;;;5.95;1.42;;;;;;;;;;5075175;28;20105;-69
2021/07/01 14:21:51;;;;;;;8.68;1.00;;;;;;;;;;5074745;28;20017;-69
2021/07/01 14:24:26;;;;;;;4.30;0.98;;;;;;;;;;5075104;28;20051;-69
2021/07/01 14:26:56;;;;;;;3.35;0.55;;;;;;;;;;5075120;28;20021;-69
2021/07/01 14:29:23;;;;;;;1.58;0.57;;;;;;;;;;5075267;28;20476;-69
2021/07/01 14:31:50;;;;;;;0.50;0.30;;;;;;;;;;5074868;28;20481;-69
2021/07/01 14:34:16;;;;;;;2.70;0.50;;;;;;;;;;5056820;28;20484;-69
2021/07/01 14:36:47;;;;;;;2.53;0.85;;;;;;;;;;5074792;28;20028;-69
2021/07/01 14:39:13;;;;;;;0.63;0.22;;;;;;;;;;5075014;28;20025;-69
2021/07/01 14:41:40;;;;;;;4.75;0.40;;;;;;;;;;5074791;28;20127;-69
2021/07/01 14:44:06;;;;;;;11.30;0.60;;;;;;;;;;5074587;28;20432;-69
2021/07/01 14:46:49;;;;;;;5.00;0.57;;;;;;;;;;5056786;28;20028;-69
2021/07/01 14:49:15;;;;;;;6.68;0.50;;;;;;;;;;5074474;28;20020;-69